createdAt,value
2023-04-15T00:01:19.507Z,3.17
2023-04-15T00:03:48.686Z,6.93
2023-04-15T00:06:17.179Z,4.10
2023-04-15T00:08:45.473Z,2.93
2023-04-15T00:11:15.846Z,3.93
2023-04-15T00:13:44.399Z,7.50
2023-04-15T00:16:12.902Z,3.53
2023-04-15T00:18:41.356Z,5.17
2023-04-15T00:21:10.054Z,9.10
2023-04-15T00:23:38.298Z,4.80
2023-04-15T00:26:07.507Z,4.90
2023-04-15T00:28:37.089Z,5.90
2023-04-15T00:31:05.799Z,4.73
2023-04-15T00:33:34.039Z,6.43
2023-04-15T00:36:02.848Z,3.30
2023-04-15T00:38:31.495Z,8.47
2023-04-15T00:41:00.707Z,3.70
2023-04-15T00:43:29.720Z,4.40
2023-04-15T00:46:00.784Z,6.13
2023-04-15T00:48:29.930Z,6.43
2023-04-15T00:50:58.671Z,5.10
2023-04-15T00:53:27.139Z,4.67
2023-04-15T00:55:55.903Z,5.47
2023-04-15T00:58:24.819Z,7.20
2023-04-15T01:00:54.496Z,5.57
2023-04-15T01:03:24.414Z,6.23
2023-04-15T01:05:58.235Z,5.60
2023-04-15T01:08:28.634Z,4.30
2023-04-15T01:10:57.991Z,7.73
2023-04-15T01:13:26.685Z,5.70
2023-04-15T01:15:56.202Z,6.67
2023-04-15T01:18:26.042Z,8.70
2023-04-15T01:20:54.693Z,5.90
2023-04-15T01:23:26.413Z,6.10
2023-04-15T01:25:57.359Z,5.33
2023-04-15T01:28:25.915Z,4.30
2023-04-15T01:31:07.869Z,7.20
2023-04-15T01:33:39.250Z,3.70
2023-04-15T01:36:10.098Z,7.40
2023-04-15T01:38:39.100Z,7.43
2023-04-15T01:41:08.739Z,8.37
2023-04-15T01:43:37.816Z,5.70
2023-04-15T01:46:06.338Z,8.00
2023-04-15T01:48:35.124Z,6.90
2023-04-15T01:51:05.221Z,4.97
2023-04-15T01:53:34.262Z,5.43
2023-04-15T01:56:04.262Z,4.93
2023-04-15T01:58:33.983Z,3.87
2023-04-15T02:01:03.984Z,4.73
2023-04-15T02:03:33.790Z,8.47
2023-04-15T02:06:02.602Z,6.80
2023-04-15T02:08:31.258Z,7.73
2023-04-15T02:11:01.222Z,5.03
2023-04-15T02:13:30.285Z,5.90
2023-04-15T02:16:00.498Z,4.73
2023-04-15T02:18:28.793Z,5.60
2023-04-15T02:20:58.458Z,7.00
2023-04-15T02:23:27.131Z,5.40
2023-04-15T02:25:55.761Z,5.43
2023-04-15T02:28:24.419Z,4.53
2023-04-15T02:31:00.165Z,4.53
2023-04-15T02:33:54.834Z,6.57
2023-04-15T02:36:30.105Z,5.23
2023-04-15T02:39:05.894Z,5.37
2023-04-15T02:41:43.439Z,5.80
2023-04-15T02:44:23.598Z,6.87
2023-04-15T02:46:59.491Z,8.73
2023-04-15T02:49:32.455Z,5.53
2023-04-15T02:52:09.019Z,10.63
2023-04-15T02:54:38.336Z,8.30
2023-04-15T02:57:07.451Z,6.63
2023-04-15T02:59:36.239Z,5.60
2023-04-15T03:02:26.873Z,6.70
2023-04-15T03:05:28.125Z,7.60
2023-04-15T03:08:01.305Z,6.90
2023-04-15T03:10:39.923Z,7.10
2023-04-15T03:13:21.009Z,7.00
2023-04-15T03:15:50.181Z,5.77
2023-04-15T03:18:24.363Z,8.47
2023-04-15T03:20:55.605Z,6.83
2023-04-15T03:23:27.634Z,8.60
2023-04-15T03:26:08.548Z,5.87
2023-04-15T03:28:54.784Z,7.50
2023-04-15T03:31:24.829Z,7.23
2023-04-15T03:34:03.644Z,8.03
2023-04-15T03:36:36.048Z,5.10
2023-04-15T03:39:18.168Z,5.33
2023-04-15T03:42:11.304Z,6.47
2023-04-15T03:44:52.913Z,7.23
2023-04-15T03:47:31.121Z,7.23
2023-04-15T03:50:03.353Z,6.30
2023-04-15T03:52:41.139Z,7.97
2023-04-15T03:55:28.370Z,10.90
2023-04-15T03:58:01.980Z,9.23
2023-04-15T04:00:39.302Z,16.87
2023-04-15T04:03:12.155Z,17.53
2023-04-15T04:05:48.266Z,32.00
2023-04-15T04:08:22.641Z,15.80
2023-04-15T04:10:57.158Z,9.97
2023-04-15T04:13:28.625Z,9.03
2023-04-15T04:16:00.674Z,6.23
2023-04-15T04:18:40.438Z,11.70
2023-04-15T04:21:15.609Z,5.73
2023-04-15T04:23:46.324Z,7.27
2023-04-15T04:26:22.788Z,6.77
2023-04-15T04:28:54.078Z,8.27
2023-04-15T04:31:34.903Z,10.50
2023-04-15T04:34:07.339Z,12.10
2023-04-15T04:36:45.685Z,6.63
2023-04-15T04:39:16.903Z,10.47
2023-04-15T04:44:33.697Z,7.43
2023-04-15T04:47:04.576Z,8.10
2023-04-15T04:50:02.055Z,7.03
2023-04-15T04:52:33.964Z,6.00
2023-04-15T04:55:06.969Z,6.90
2023-04-15T04:57:41.564Z,8.43
2023-04-15T05:00:16.616Z,10.13
2023-04-15T05:03:04.331Z,10.30
2023-04-15T05:05:42.662Z,9.13
2023-04-15T05:08:12.468Z,8.33
2023-04-15T05:10:47.497Z,8.40
2023-04-15T05:13:25.934Z,10.23
2023-04-15T05:15:59.788Z,12.93
2023-04-15T05:18:29.394Z,17.07
2023-04-15T05:21:05.584Z,20.03
2023-04-15T05:23:47.499Z,19.93
2023-04-15T05:26:51.098Z,13.30
2023-04-15T05:29:37.549Z,8.27
2023-04-15T05:32:12.615Z,11.17
2023-04-15T05:34:43.999Z,12.63
2023-04-15T05:37:14.407Z,9.80
2023-04-15T05:39:45.585Z,14.33
2023-04-15T05:42:14.415Z,8.20
2023-04-15T05:44:50.091Z,13.97
2023-04-15T05:47:18.383Z,10.80
2023-04-15T05:50:17.939Z,9.80
2023-04-15T05:52:48.852Z,9.90
2023-04-15T05:55:17.309Z,9.97
2023-04-15T05:57:45.618Z,8.80
2023-04-15T06:00:16.436Z,9.23
2023-04-15T06:02:44.786Z,15.93
2023-04-15T06:05:13.815Z,15.63
2023-04-15T06:07:44.060Z,13.07
2023-04-15T06:10:13.228Z,10.00
2023-04-15T06:12:41.646Z,8.93
2023-04-15T06:15:11.422Z,14.87
2023-04-15T06:17:41.191Z,10.73
2023-04-15T06:20:10.498Z,10.17
2023-04-15T06:22:39.333Z,8.63
2023-04-15T06:25:09.350Z,9.23
2023-04-15T06:27:37.689Z,8.27
2023-04-15T06:30:07.142Z,9.07
2023-04-15T06:32:35.819Z,8.17
2023-04-15T06:35:06.232Z,10.70
2023-04-15T06:37:34.628Z,9.63
2023-04-15T06:40:05.130Z,7.60
2023-04-15T06:42:38.335Z,7.67
2023-04-15T06:45:08.715Z,8.90
2023-04-15T06:47:37.030Z,10.70
2023-04-15T06:50:07.655Z,13.80
2023-04-15T06:52:36.239Z,9.10
2023-04-15T06:55:05.357Z,9.50
2023-04-15T06:57:35.074Z,11.03
2023-04-15T07:00:05.781Z,9.00
2023-04-15T07:02:34.196Z,9.10
2023-04-15T07:05:02.815Z,9.73
2023-04-15T07:07:32.492Z,8.83
2023-04-15T07:10:02.113Z,9.70
2023-04-15T07:12:30.650Z,9.40
2023-04-15T07:14:58.908Z,41.30
2023-04-15T07:17:27.264Z,16.20
2023-04-15T07:19:57.805Z,10.87
2023-04-15T07:22:26.632Z,10.80
2023-04-15T07:24:59.294Z,9.73
2023-04-15T07:27:27.611Z,13.40
2023-04-15T07:29:56.471Z,12.00
2023-04-15T07:32:26.155Z,13.07
2023-04-15T07:34:54.798Z,12.93
2023-04-15T07:37:23.297Z,10.30
2023-04-15T07:39:51.564Z,11.90
2023-04-15T07:42:21.365Z,10.37
2023-04-15T07:44:49.703Z,10.40
2023-04-15T07:47:18.037Z,9.87
2023-04-15T07:49:46.410Z,12.20
2023-04-15T07:52:14.757Z,9.63
2023-04-15T07:54:46.301Z,10.80
2023-04-15T07:57:14.686Z,7.77
2023-04-15T07:59:44.293Z,7.20
2023-04-15T08:02:12.857Z,7.10
2023-04-15T08:04:41.281Z,8.83
2023-04-15T08:07:09.707Z,5.33
2023-04-15T08:09:37.991Z,7.00
2023-04-15T08:12:07.900Z,7.50
2023-04-15T08:14:36.375Z,6.87
2023-04-15T08:17:06.642Z,8.57
2023-04-15T08:19:34.939Z,7.43
2023-04-15T08:22:03.642Z,6.73
2023-04-15T08:24:33.155Z,8.20
2023-04-15T08:27:01.538Z,5.17
2023-04-15T08:29:30.989Z,23.33
2023-04-15T08:32:00.591Z,34.00
2023-04-15T08:34:30.732Z,9.57
2023-04-15T08:36:59.477Z,6.03
2023-04-15T08:39:28.320Z,5.63
2023-04-15T08:42:01.650Z,5.10
2023-04-15T08:44:34.302Z,4.77
2023-04-15T08:47:04.055Z,3.00
2023-04-15T08:49:36.868Z,2.83
2023-04-15T08:52:05.996Z,6.43
2023-04-15T08:54:35.585Z,3.77
2023-04-15T08:57:04.360Z,4.23
2023-04-15T08:59:32.732Z,4.63
2023-04-15T09:02:01.198Z,3.57
2023-04-15T09:04:29.696Z,4.10
2023-04-15T09:06:59.644Z,3.50
2023-04-15T09:09:29.189Z,2.90
2023-04-15T09:11:57.842Z,3.83
2023-04-15T09:14:26.208Z,2.40
2023-04-15T09:17:00.200Z,3.23
2023-04-15T09:19:28.832Z,2.37
2023-04-15T09:22:00.257Z,2.83
2023-04-15T09:24:38.477Z,5.90
2023-04-15T09:27:07.412Z,13.30
2023-04-15T09:29:37.106Z,4.00
2023-04-15T09:32:13.050Z,2.97
2023-04-15T09:34:41.489Z,2.87
2023-04-15T09:37:24.254Z,2.60
2023-04-15T09:39:59.902Z,2.53
2023-04-15T09:42:31.796Z,3.77
2023-04-15T09:45:10.110Z,3.30
2023-04-15T09:47:38.598Z,3.10
2023-04-15T09:50:07.843Z,3.03
2023-04-15T09:52:44.131Z,2.57
2023-04-15T09:55:13.154Z,4.07
2023-04-15T09:57:42.437Z,3.67
2023-04-15T10:00:11.733Z,2.83
2023-04-15T10:02:41.944Z,3.83
2023-04-15T10:05:13.351Z,3.80
2023-04-15T10:07:43.592Z,4.40
2023-04-15T10:10:12.953Z,9.37
2023-04-15T10:12:42.680Z,6.33
2023-04-15T10:15:16.602Z,3.23
2023-04-15T10:17:46.268Z,2.70
2023-04-15T10:20:16.199Z,2.90
2023-04-15T10:22:47.878Z,2.93
2023-04-15T10:25:17.077Z,2.80
2023-04-15T10:27:46.506Z,3.20
2023-04-15T10:30:14.956Z,2.73
2023-04-15T10:32:44.022Z,4.07
2023-04-15T10:35:13.074Z,3.20
2023-04-15T10:37:41.407Z,3.13
2023-04-15T10:40:28.772Z,2.13
2023-04-15T10:42:57.316Z,2.60
2023-04-15T10:45:28.391Z,3.03
2023-04-15T10:47:58.104Z,3.07
2023-04-15T10:50:28.783Z,3.07
2023-04-15T10:52:58.243Z,2.90
2023-04-15T10:55:32.861Z,3.30
2023-04-15T10:58:02.677Z,2.63
2023-04-15T11:00:32.748Z,3.47
2023-04-15T11:03:07.995Z,3.20
2023-04-15T11:05:53.605Z,3.87
2023-04-15T11:08:42.018Z,3.40
2023-04-15T11:11:11.684Z,3.40
2023-04-15T11:13:49.460Z,3.40
2023-04-15T11:16:18.037Z,4.20
2023-04-15T11:18:55.914Z,5.07
2023-04-15T11:21:28.280Z,4.53
2023-04-15T11:23:56.664Z,4.13
2023-04-15T11:26:28.902Z,3.53
2023-04-15T11:28:57.857Z,3.30
2023-04-15T11:31:29.327Z,3.40
2023-04-15T11:34:00.149Z,8.60
2023-04-15T11:36:30.200Z,9.97
2023-04-15T11:39:00.159Z,5.37
2023-04-15T11:41:30.154Z,4.10
2023-04-15T11:43:58.576Z,3.40
2023-04-15T11:46:32.846Z,2.47
2023-04-15T11:49:01.578Z,6.43
2023-04-15T11:51:34.759Z,3.00
2023-04-15T11:54:05.963Z,3.10
2023-04-15T11:56:36.028Z,3.60
2023-04-15T11:59:04.937Z,3.10
2023-04-15T12:01:33.868Z,4.60
2023-04-15T12:04:12.116Z,4.20
2023-04-15T12:06:41.359Z,4.77
2023-04-15T12:09:11.209Z,3.60
2023-04-15T12:11:48.483Z,3.23
2023-04-15T12:14:23.603Z,3.50
2023-04-15T12:16:54.047Z,2.93
2023-04-15T12:19:26.573Z,2.80
2023-04-15T12:22:00.359Z,2.77
2023-04-15T12:24:32.132Z,2.60
2023-04-15T12:27:04.784Z,2.60
2023-04-15T12:29:34.552Z,2.87
2023-04-15T12:32:07.504Z,2.53
2023-04-15T12:34:36.919Z,2.50
2023-04-15T12:37:07.766Z,5.47
2023-04-15T12:39:38.219Z,3.87
2023-04-15T12:42:08.968Z,2.63
2023-04-15T12:44:38.104Z,2.37
2023-04-15T12:47:06.754Z,2.90
2023-04-15T12:49:35.829Z,2.50
2023-04-15T12:52:05.161Z,5.30
2023-04-15T12:54:34.605Z,3.80
2023-04-15T12:57:06.018Z,4.20
2023-04-15T12:59:37.516Z,2.30
2023-04-15T13:02:06.419Z,2.50
2023-04-15T13:04:34.902Z,6.83
2023-04-15T13:07:03.959Z,7.67
2023-04-15T13:09:32.483Z,10.03
2023-04-15T13:12:00.837Z,4.17
2023-04-15T13:14:29.121Z,3.50
2023-04-15T13:16:59.317Z,4.73
2023-04-15T13:19:27.760Z,3.27
2023-04-15T13:21:56.142Z,2.30
2023-04-15T13:24:24.518Z,6.33
2023-04-15T13:26:53.496Z,2.77
2023-04-15T13:29:22.247Z,3.20
2023-04-15T13:31:50.604Z,2.30
2023-04-15T13:34:20.324Z,2.93
2023-04-15T13:36:48.832Z,2.10
2023-04-15T13:39:17.176Z,3.00
2023-04-15T13:41:45.460Z,3.53
2023-04-15T13:44:13.823Z,2.53
2023-04-15T13:46:42.873Z,2.63
2023-04-15T13:49:11.255Z,2.40
2023-04-15T13:51:41.022Z,2.47
2023-04-15T13:54:09.758Z,3.83
2023-04-15T13:56:38.066Z,2.00
2023-04-15T13:59:06.809Z,2.53
2023-04-15T14:01:35.856Z,2.33
2023-04-15T14:04:04.557Z,2.80
2023-04-15T14:06:33.383Z,3.67
2023-04-15T14:09:04.083Z,2.70
2023-04-15T14:11:32.752Z,3.50
2023-04-15T14:14:01.014Z,4.00
2023-04-15T14:16:29.412Z,5.80
2023-04-15T14:18:58.133Z,3.07
2023-04-15T14:21:27.877Z,3.00
2023-04-15T14:23:56.455Z,5.53
2023-04-15T14:26:26.170Z,4.80
2023-04-15T14:28:54.534Z,3.23
2023-04-15T14:31:22.957Z,3.00
2023-04-15T14:33:51.445Z,3.43
2023-04-15T14:36:19.781Z,3.83
2023-04-15T14:39:03.957Z,3.87
2023-04-15T14:41:33.756Z,2.70
2023-04-15T14:44:03.713Z,2.80
2023-04-15T14:46:32.178Z,14.77
2023-04-15T14:49:00.600Z,13.93
2023-04-15T14:51:28.962Z,7.30
2023-04-15T14:53:57.246Z,3.50
2023-04-15T14:56:25.645Z,5.33
2023-04-15T14:58:55.391Z,2.77
2023-04-15T15:01:24.028Z,3.20
2023-04-15T15:03:52.644Z,4.17
2023-04-15T15:06:22.898Z,2.23
2023-04-15T15:08:51.503Z,2.00
2023-04-15T15:11:20.037Z,3.27
2023-04-15T15:13:48.451Z,1.90
2023-04-15T15:16:18.301Z,5.63
2023-04-15T15:18:46.903Z,2.00
2023-04-15T15:21:15.310Z,1.50
2023-04-15T15:23:43.556Z,2.17
2023-04-15T15:26:12.423Z,3.10
2023-04-15T15:28:42.157Z,3.03
2023-04-15T15:31:10.966Z,1.73
2023-04-15T15:33:41.663Z,1.60
2023-04-15T15:36:13.925Z,1.73
2023-04-15T15:38:42.659Z,1.80
2023-04-15T15:41:11.249Z,2.10
2023-04-15T15:43:39.938Z,2.00
2023-04-15T15:46:09.006Z,1.57
2023-04-15T15:48:37.604Z,2.60
2023-04-15T15:51:07.714Z,3.20
2023-04-15T15:53:36.375Z,2.20
2023-04-15T15:56:04.935Z,2.73
2023-04-15T15:58:35.086Z,2.30
2023-04-15T16:01:03.657Z,4.50
2023-04-15T16:03:32.113Z,4.53
2023-04-15T16:06:00.903Z,3.17
2023-04-15T16:08:30.852Z,2.13
2023-04-15T16:10:59.208Z,2.37
2023-04-15T16:13:27.739Z,2.17
2023-04-15T16:15:56.259Z,1.57
2023-04-15T16:18:24.619Z,2.70
2023-04-15T16:20:53.109Z,2.43
2023-04-15T16:23:22.745Z,1.97
2023-04-15T16:25:52.732Z,2.87
2023-04-15T16:28:26.741Z,1.97
2023-04-15T16:30:56.247Z,5.30
2023-04-15T16:33:24.704Z,4.30
2023-04-15T16:35:53.418Z,2.00
2023-04-15T16:38:22.769Z,1.73
2023-04-15T16:40:52.750Z,3.03
2023-04-15T16:43:21.079Z,2.57
2023-04-15T16:45:51.257Z,1.73
2023-04-15T16:48:21.090Z,4.60
2023-04-15T16:50:49.894Z,3.67
2023-04-15T16:53:18.702Z,3.60
2023-04-15T16:55:46.977Z,4.07
2023-04-15T16:58:19.387Z,2.20
2023-04-15T17:00:47.975Z,3.70
2023-04-15T17:03:16.894Z,2.97
2023-04-15T17:05:46.150Z,2.20
2023-04-15T17:08:14.591Z,2.50
2023-04-15T17:10:42.942Z,2.77
2023-04-15T17:13:11.238Z,8.67
2023-04-15T17:15:41.113Z,11.90
2023-04-15T17:18:10.642Z,2.37
2023-04-15T17:20:40.167Z,2.47
2023-04-15T17:23:08.684Z,3.47
2023-04-15T17:25:36.932Z,2.47
2023-04-15T17:28:05.268Z,5.67
2023-04-15T17:30:34.404Z,5.03
2023-04-15T17:33:58.014Z,3.00
2023-04-15T17:35:52.727Z,4.80
2023-04-15T17:38:21.301Z,3.80
2023-04-15T17:40:49.772Z,2.60
2023-04-15T17:43:18.729Z,2.73
2023-04-15T17:45:47.521Z,5.10
2023-04-15T17:48:17.620Z,4.27
2023-04-15T17:50:46.178Z,5.63
2023-04-15T17:53:14.902Z,4.63
2023-04-15T17:55:43.254Z,3.10
2023-04-15T17:58:11.746Z,4.00
2023-04-15T18:00:40.136Z,2.80
2023-04-15T18:03:08.519Z,2.83
2023-04-15T18:05:40.270Z,3.13
2023-04-15T18:08:09.891Z,3.13
2023-04-15T18:10:42.116Z,3.13
2023-04-15T18:13:10.797Z,6.27
2023-04-15T18:15:39.154Z,5.10
2023-04-15T18:18:09.366Z,3.93
2023-04-15T18:20:39.103Z,2.73
2023-04-15T18:23:07.517Z,4.57
2023-04-15T18:25:38.228Z,4.63
2023-04-15T18:28:06.931Z,4.77
2023-04-15T18:30:35.248Z,3.50
2023-04-15T18:33:03.798Z,3.50
2023-04-15T18:35:32.103Z,5.60
2023-04-15T18:38:02.064Z,3.87
2023-04-15T18:40:30.471Z,5.13
2023-04-15T18:42:58.682Z,2.73
2023-04-15T18:45:26.944Z,2.77
2023-04-15T18:47:55.726Z,4.27
2023-04-15T18:50:24.503Z,3.13
2023-04-15T18:52:52.907Z,3.30
2023-04-15T18:55:23.602Z,4.53
2023-04-15T18:57:52.733Z,3.97
2023-04-15T19:00:21.452Z,6.07
2023-04-15T19:02:49.965Z,2.90
2023-04-15T19:05:21.482Z,3.30
2023-04-15T19:07:54.454Z,7.13
2023-04-15T19:10:31.302Z,6.03
2023-04-15T19:13:04.079Z,5.13
2023-04-15T19:18:18.399Z,4.77
2023-04-15T19:21:04.365Z,5.23
2023-04-15T19:23:36.061Z,3.47
2023-04-15T19:26:19.436Z,8.20
2023-04-15T19:29:22.923Z,3.20
2023-04-15T19:31:55.521Z,5.10
2023-04-15T19:37:25.123Z,6.20
2023-04-15T19:40:09.618Z,5.80
2023-04-15T19:42:41.187Z,5.40
2023-04-15T19:45:10.146Z,5.80
2023-04-15T19:47:46.367Z,6.97
2023-04-15T19:50:55.059Z,5.03
2023-04-15T19:53:34.698Z,5.40
2023-04-15T19:56:07.070Z,5.93
2023-04-15T19:58:54.330Z,3.50
2023-04-15T20:01:34.005Z,10.33
2023-04-15T20:04:10.528Z,4.57
2023-04-15T20:06:59.863Z,4.90
2023-04-15T20:09:30.852Z,3.70
2023-04-15T20:12:48.846Z,6.90
2023-04-15T20:14:58.482Z,4.43
2023-04-15T20:17:30.460Z,5.60
2023-04-15T20:19:59.681Z,5.40
2023-04-15T20:22:48.158Z,4.40
2023-04-15T20:25:25.982Z,3.43
2023-04-15T20:28:01.060Z,4.40
2023-04-15T20:30:33.243Z,8.50
2023-04-15T20:33:01.537Z,7.63
2023-04-15T20:35:31.083Z,5.50
2023-04-15T20:37:59.852Z,7.37
2023-04-15T20:40:28.645Z,4.40
2023-04-15T20:42:57.149Z,5.03
2023-04-15T20:45:26.044Z,6.63
2023-04-15T20:47:56.220Z,5.63
2023-04-15T20:50:24.801Z,3.90
2023-04-15T20:52:53.247Z,4.47
2023-04-15T20:55:21.798Z,8.57
2023-04-15T20:57:50.454Z,6.77
2023-04-15T21:00:18.902Z,3.47
2023-04-15T21:02:47.276Z,6.70
2023-04-15T21:05:17.006Z,5.67
2023-04-15T21:07:45.363Z,3.80
2023-04-15T21:10:13.778Z,6.00
2023-04-15T21:12:42.588Z,6.20
2023-04-15T21:15:11.837Z,4.47
2023-04-15T21:17:41.719Z,4.63
2023-04-15T21:20:11.052Z,8.13
2023-04-15T21:22:41.251Z,12.93
2023-04-15T21:25:10.837Z,4.83
2023-04-15T21:27:39.202Z,4.70
2023-04-15T21:30:08.886Z,3.67
2023-04-15T21:32:37.311Z,7.60
2023-04-15T21:35:06.572Z,6.00
2023-04-15T21:37:35.080Z,4.10
2023-04-15T21:40:05.389Z,7.13
2023-04-15T21:42:33.862Z,5.77
2023-04-15T21:45:02.205Z,11.73
2023-04-15T21:47:30.694Z,8.03
2023-04-15T21:49:58.980Z,6.93
2023-04-15T21:52:29.976Z,6.80
2023-04-15T21:54:58.247Z,5.03
2023-04-15T21:57:28.110Z,5.37
2023-04-15T21:59:56.505Z,7.80
2023-04-15T22:02:25.203Z,4.80
2023-04-15T22:04:53.692Z,6.90
2023-04-15T22:07:22.024Z,7.30
2023-04-15T22:09:50.323Z,6.77
2023-04-15T22:12:18.634Z,7.70
2023-04-15T22:14:48.275Z,8.30
2023-04-15T22:17:16.614Z,5.70
2023-04-15T22:19:45.237Z,7.47
2023-04-15T22:22:13.429Z,6.27
2023-04-15T22:24:41.622Z,6.57
2023-04-15T22:27:10.066Z,6.30
2023-04-15T22:29:38.459Z,6.90
2023-04-15T22:32:08.511Z,7.50
2023-04-15T22:34:37.017Z,6.77
2023-04-15T22:37:05.193Z,8.83
2023-04-15T22:39:33.383Z,6.90
2023-04-15T22:42:02.061Z,5.37
2023-04-15T22:44:30.497Z,8.53
2023-04-15T22:46:58.821Z,7.03
2023-04-15T22:49:28.599Z,5.77
2023-04-15T22:51:57.015Z,5.70
2023-04-15T22:54:25.636Z,6.80
2023-04-15T22:56:53.875Z,7.50
2023-04-15T22:59:22.371Z,7.13
2023-04-15T23:01:50.979Z,5.67
2023-04-15T23:04:22.949Z,12.70
2023-04-15T23:06:56.066Z,5.90
2023-04-15T23:09:24.572Z,8.93
2023-04-15T23:11:52.831Z,8.73
2023-04-15T23:14:21.193Z,11.53
2023-04-15T23:16:49.469Z,5.40
2023-04-15T23:19:17.743Z,5.40
2023-04-15T23:21:46.034Z,6.33
2023-04-15T23:24:15.642Z,7.60
2023-04-15T23:26:43.953Z,13.20
2023-04-15T23:29:12.226Z,8.20
2023-04-15T23:31:41.614Z,10.03
2023-04-15T23:34:10.060Z,10.60
2023-04-15T23:36:38.539Z,7.83
2023-04-15T23:39:06.990Z,5.60
2023-04-15T23:41:37.802Z,8.67
2023-04-15T23:44:06.579Z,11.20
2023-04-15T23:46:34.987Z,10.03
2023-04-15T23:49:03.303Z,7.57
2023-04-15T23:51:34.306Z,4.77
2023-04-15T23:54:02.535Z,7.20
2023-04-15T23:56:31.508Z,8.17
2023-04-15T23:59:01.178Z,7.47
